Domov               UVHVVR             MKGP            O straneh              
ZDRAVSTVENO VARSTVO RASTLIN
  MREŽA AGROMET. POSTAJ
 ► PROGNOSTIČNA OBVESTILA
AGROMETEOROLOŠKI PODATKI -
ARSO
OBVLADOVANJE TVEGANJ ZARADI
NEUGODNIH VREMENSKIH RAZMER
  ► NARAVNE NESREČE
  ► SUŠA/MOČA
  ► NAMAKANJE
  ► ŽLED (gozdarstvo)
KARTOGRAFSKI PRIKAZI
SPLETNE POVEZAVE
PROJEKTI IN PUBLIKACIJE

AGROMETEOROLOŠKA MREŽA: VREMENSKE POSTAJE IN FENOLOŠKA OPAZOVANJA

Pregled podatkov za lokacijo Kasaze (Mirosan), meteorološka postaja 27394

Pregled senzorjev na lokaciji

ID Ime Zadnja
vrednost
Datum
zadnje
spremembe
Tip
senzorja
521 Temperatura 2 m ( °C) 25,27 °C 19.10.2017 16:00 Generic -40 - +60 °C
522 Relativna vlaga 2 m (% RH) 37,56 % RH 19.10.2017 16:00 Generic 0 - 100 %
546 Omočenost lista (U) 0 U 19.10.2017 16:00 A730WET
4028 Padavine 0.2 mm (mm) 0 mm 19.10.2017 15:59 Generic 0.2 mm

Pregled podatkov zadnjih 24 ur

Zap.
št.
Datum in čas Kasaze (Mirosan)
Omočenost
lista
Padavine
0.2
mm
Relativna
vlaga
2
m
Temperatura
2
m
0 19.10.2017 15:00 0 0 37,56 25,27
1 19.10.2017 14:30 0 0 35,31 24,62
2 19.10.2017 14:00 0 0 38 23,17
3 19.10.2017 13:30 0 0 44,13 22,32
4 19.10.2017 13:00 0 0 45,81 21,15
5 19.10.2017 12:30 0 0 49,11 20,44
6 19.10.2017 12:00 0 0 50,45 20,02
7 19.10.2017 11:30 0 0 50,79 19,83
8 19.10.2017 11:00 0 0 49,84 20,24
9 19.10.2017 10:30 0 0 47,72 19,88
10 19.10.2017 10:00 0 0 48,23 18,14
11 19.10.2017 09:30 0 0 55,82 16,58
12 19.10.2017 09:00 0 0 61,29 14,75
13 19.10.2017 08:30 0 0 66,28 12,67
14 19.10.2017 08:00 0 0 80,68 9,99
15 19.10.2017 07:30 6 0 86,84 8,18
16 19.10.2017 07:00 9 0 91,36 6,96
17 19.10.2017 06:30 8 0 93,6 6,79
18 19.10.2017 06:00 4 0 91,6 7,35
19 19.10.2017 05:30 2 0 88,06 8,28
20 19.10.2017 05:00 2 0 85,76 8,35
21 19.10.2017 04:30 1 0 85,25 8,84
22 19.10.2017 04:00 1 0 83,64 8,67
23 19.10.2017 03:30 1 0 86,74 8,69
24 19.10.2017 03:00 1 0 84,37 8,72
25 19.10.2017 02:30 0 0 80,78 9,62
26 19.10.2017 02:00 0 0 78,75 10,28
27 19.10.2017 01:30 0 0 78,12 9,82
28 19.10.2017 01:00 1 0 80,93 9,69
29 19.10.2017 00:30 2 0 83,74 9,43
30 19.10.2017 00:00 2 0 87,35 9,67
31 18.10.2017 23:30 1 0 83,52 10,21
32 18.10.2017 23:00 0 0 81,56 11,16
33 18.10.2017 22:30 0 0 76,26 11,84
34 18.10.2017 22:00 0 0 70,84 12,36
35 18.10.2017 21:30 0 0 73,75 13,5
36 18.10.2017 21:00 0 0 63,1 15,97
37 18.10.2017 20:30 0 0 59,51 16,19
38 18.10.2017 20:00 0 0 61,29 16,02
39 18.10.2017 19:30 0 0 57,68 16,26
40 18.10.2017 19:00 0 0 57,48 16,21
41 18.10.2017 18:30 0 0 55,75 16,58
42 18.10.2017 18:00 0 0 58,49 15,41
43 18.10.2017 17:30 0 0 59,34 15,53
44 18.10.2017 17:00 0 0 54,09 17,24
45 18.10.2017 16:30 0 0 47,11 19,8
© 2011 Ministrstvo za kmetijstvo, gozdarstvo in prehrano. Vse pravice pridržane.